createdAt,value
2019-03-20T00:01:09.793Z,51.63
2019-03-20T00:02:17.179Z,41.13
2019-03-20T00:03:23.945Z,39.37
2019-03-20T00:04:31.464Z,42.93
2019-03-20T00:05:38.480Z,35.37
2019-03-20T00:06:45.349Z,41.73
2019-03-20T00:07:52.468Z,43.20
2019-03-20T00:08:59.243Z,38.27
2019-03-20T00:10:07.173Z,39.17
2019-03-20T00:11:13.926Z,35.80
2019-03-20T00:12:20.710Z,34.53
2019-03-20T00:13:27.485Z,38.67
2019-03-20T00:14:34.367Z,42.67
2019-03-20T00:15:41.073Z,34.30
2019-03-20T00:16:47.805Z,35.30
2019-03-20T00:17:55.193Z,33.15
2019-03-20T00:19:02.021Z,39.97
2019-03-20T00:20:10.300Z,38.50
2019-03-20T00:21:17.456Z,41.50
2019-03-20T00:22:24.203Z,43.13
2019-03-20T00:23:31.115Z,44.30
2019-03-20T00:24:37.904Z,39.33
2019-03-20T00:25:44.768Z,41.90
2019-03-20T00:26:51.833Z,50.23
2019-03-20T00:27:58.602Z,45.30
2019-03-20T00:29:05.660Z,43.10
2019-03-20T00:30:14.263Z,38.80
2019-03-20T00:31:21.168Z,51.60
2019-03-20T00:32:28.033Z,42.87
2019-03-20T00:33:35.608Z,39.70
2019-03-20T00:34:42.359Z,41.50
2019-03-20T00:35:49.093Z,37.23
2019-03-20T00:36:56.311Z,39.67
2019-03-20T00:38:03.471Z,43.33
2019-03-20T00:39:10.689Z,38.67
2019-03-20T00:40:17.442Z,44.27
2019-03-20T00:41:24.178Z,42.83
2019-03-20T00:42:30.985Z,42.30
2019-03-20T00:43:37.717Z,40.03
2019-03-20T00:44:45.642Z,45.73
2019-03-20T00:45:52.377Z,41.50
2019-03-20T00:46:59.793Z,46.30
2019-03-20T00:48:06.885Z,40.90
2019-03-20T00:49:14.094Z,39.50
2019-03-20T00:50:20.824Z,39.60
2019-03-20T00:51:28.212Z,39.10
2019-03-20T00:52:34.984Z,40.43
2019-03-20T00:53:42.100Z,52.53
2019-03-20T00:54:48.869Z,47.20
2019-03-20T00:55:56.241Z,43.10
2019-03-20T00:57:02.989Z,43.17
2019-03-20T00:58:09.784Z,48.60
2019-03-20T00:59:16.487Z,59.43
2019-03-20T01:00:24.311Z,43.97
2019-03-20T01:01:31.858Z,43.97
2019-03-20T01:02:38.606Z,43.80
2019-03-20T01:03:45.664Z,45.47
2019-03-20T01:04:52.733Z,49.93
2019-03-20T01:05:59.781Z,48.80
2019-03-20T01:07:06.917Z,41.87
2019-03-20T01:08:13.690Z,47.13
2019-03-20T01:09:20.789Z,45.50
2019-03-20T01:10:27.622Z,41.70
2019-03-20T01:11:34.346Z,61.63
2019-03-20T01:12:41.139Z,50.07
2019-03-20T01:13:49.274Z,46.53
2019-03-20T01:14:56.677Z,44.10
2019-03-20T01:16:04.154Z,38.90
2019-03-20T01:17:11.819Z,41.53
2019-03-20T01:18:18.764Z,39.60
2019-03-20T01:19:25.783Z,40.40
2019-03-20T01:20:32.565Z,43.43
2019-03-20T01:21:39.259Z,42.47
2019-03-20T01:22:46.537Z,45.80
2019-03-20T01:23:53.577Z,46.90
2019-03-20T01:25:00.369Z,42.77
2019-03-20T01:26:07.112Z,42.80
2019-03-20T01:27:14.821Z,45.57
2019-03-20T01:28:22.576Z,47.73
2019-03-20T01:29:29.412Z,40.37
2019-03-20T01:30:39.082Z,44.70
2019-03-20T01:31:45.808Z,44.80
2019-03-20T01:32:52.532Z,53.90
2019-03-20T01:33:59.666Z,42.33
2019-03-20T01:35:07.151Z,42.63
2019-03-20T01:36:13.877Z,43.90
2019-03-20T01:37:20.659Z,44.07
2019-03-20T01:38:27.464Z,40.53
2019-03-20T01:39:34.191Z,45.30
2019-03-20T01:40:41.285Z,43.90
2019-03-20T01:41:48.005Z,43.60
2019-03-20T01:42:55.251Z,45.07
2019-03-20T01:44:02.294Z,38.70
2019-03-20T01:45:10.672Z,39.80
2019-03-20T01:46:17.758Z,45.33
2019-03-20T01:47:24.817Z,46.77
2019-03-20T01:48:31.611Z,49.77
2019-03-20T01:49:38.370Z,47.33
2019-03-20T01:50:45.143Z,43.07
2019-03-20T01:51:52.165Z,39.07
2019-03-20T01:52:59.314Z,50.43
2019-03-20T01:54:06.104Z,42.57
2019-03-20T01:55:13.054Z,39.38
2019-03-20T01:56:20.172Z,39.67
2019-03-20T01:57:26.979Z,44.10
2019-03-20T01:58:34.250Z,40.97
2019-03-20T01:59:40.980Z,38.80
2019-03-20T02:00:48.076Z,43.43
2019-03-20T02:01:54.838Z,38.80
2019-03-20T02:03:02.219Z,46.03
2019-03-20T02:04:08.956Z,44.70
2019-03-20T02:05:16.181Z,38.10
2019-03-20T02:06:22.884Z,39.80
2019-03-20T02:07:29.931Z,51.33
2019-03-20T02:08:37.033Z,47.27
2019-03-20T02:09:43.814Z,46.23
2019-03-20T02:10:50.900Z,52.00
2019-03-20T02:11:58.357Z,44.58
2019-03-20T02:13:05.529Z,37.33
2019-03-20T02:14:12.265Z,46.83
2019-03-20T02:15:19.064Z,43.83
2019-03-20T02:16:25.837Z,42.80
2019-03-20T02:17:32.628Z,37.60
2019-03-20T02:18:39.718Z,38.53
2019-03-20T02:19:46.429Z,35.00
2019-03-20T02:20:53.636Z,46.73
2019-03-20T02:22:00.491Z,42.23
2019-03-20T02:23:07.206Z,46.23
2019-03-20T02:24:14.156Z,55.70
2019-03-20T02:25:20.917Z,41.03
2019-03-20T02:26:28.005Z,41.37
2019-03-20T02:27:34.775Z,39.90
2019-03-20T02:28:41.576Z,52.23
2019-03-20T02:29:49.028Z,43.63
2019-03-20T02:30:56.123Z,38.63
2019-03-20T02:32:03.312Z,43.73
2019-03-20T02:33:10.448Z,49.60
2019-03-20T02:34:17.583Z,53.70
2019-03-20T02:35:24.733Z,46.00
2019-03-20T02:36:31.533Z,50.53
2019-03-20T02:37:38.602Z,51.93
2019-03-20T02:38:45.661Z,47.87
2019-03-20T02:39:52.469Z,48.40
2019-03-20T02:40:59.194Z,49.07
2019-03-20T02:42:06.136Z,46.37
2019-03-20T02:43:12.929Z,44.13
2019-03-20T02:44:20.077Z,48.97
2019-03-20T02:45:26.825Z,52.07
2019-03-20T02:46:33.976Z,42.93
2019-03-20T02:47:40.890Z,59.40
2019-03-20T02:48:47.776Z,45.20
2019-03-20T02:49:54.513Z,61.13
2019-03-20T02:51:01.334Z,49.97
2019-03-20T02:52:08.077Z,49.65
2019-03-20T02:53:14.859Z,41.80
2019-03-20T02:54:21.951Z,55.00
2019-03-20T02:55:28.697Z,40.38
2019-03-20T02:56:35.651Z,46.23
2019-03-20T02:57:42.833Z,49.48
2019-03-20T02:58:49.625Z,45.97
2019-03-20T02:59:56.367Z,49.88
2019-03-20T03:01:03.076Z,45.57
2019-03-20T03:02:14.215Z,56.88
2019-03-20T03:03:21.273Z,62.80
2019-03-20T03:04:28.360Z,59.73
2019-03-20T03:05:35.140Z,51.57
2019-03-20T03:06:42.234Z,58.40
2019-03-20T03:07:49.138Z,51.92
2019-03-20T03:08:55.880Z,45.63
2019-03-20T03:10:03.101Z,49.55
2019-03-20T03:11:09.892Z,58.58
2019-03-20T03:12:17.047Z,54.73
2019-03-20T03:13:23.832Z,43.20
2019-03-20T03:14:30.572Z,42.40
2019-03-20T03:15:37.737Z,45.43
2019-03-20T03:16:44.465Z,42.77
2019-03-20T03:17:51.182Z,52.50
2019-03-20T03:18:58.212Z,51.30
2019-03-20T03:20:06.043Z,56.07
2019-03-20T03:21:13.093Z,49.50
2019-03-20T03:22:19.899Z,47.67
2019-03-20T03:23:26.999Z,55.97
2019-03-20T03:24:33.832Z,49.00
2019-03-20T03:25:40.623Z,52.38
2019-03-20T03:26:47.365Z,53.50
2019-03-20T03:27:54.459Z,55.53
2019-03-20T03:29:01.203Z,49.58
2019-03-20T03:30:08.987Z,49.35
2019-03-20T03:31:15.939Z,53.98
2019-03-20T03:32:22.700Z,51.50
2019-03-20T03:33:29.415Z,53.57
2019-03-20T03:34:36.160Z,47.35
2019-03-20T03:35:43.261Z,53.80
2019-03-20T03:36:50.647Z,57.47
2019-03-20T03:37:57.774Z,44.97
2019-03-20T03:39:06.581Z,47.75
2019-03-20T03:40:13.766Z,50.52
2019-03-20T03:41:20.592Z,47.95
2019-03-20T03:42:28.071Z,49.90
2019-03-20T03:43:35.136Z,57.05
2019-03-20T03:44:41.882Z,43.17
2019-03-20T03:45:48.599Z,60.23
2019-03-20T03:46:55.572Z,44.90
2019-03-20T03:48:02.320Z,47.73
2019-03-20T03:49:09.163Z,48.83
2019-03-20T03:50:15.914Z,45.10
2019-03-20T03:51:22.667Z,47.93
2019-03-20T03:52:29.520Z,43.30
2019-03-20T03:53:36.595Z,49.07
2019-03-20T03:54:43.596Z,54.90
2019-03-20T03:55:50.801Z,50.93
2019-03-20T03:56:57.664Z,55.40
2019-03-20T03:58:04.904Z,47.80
2019-03-20T03:59:12.056Z,42.93
2019-03-20T04:00:19.119Z,45.43
2019-03-20T04:01:25.882Z,51.80
2019-03-20T04:02:32.989Z,43.92
2019-03-20T04:03:40.605Z,46.13
2019-03-20T04:04:47.804Z,47.27
2019-03-20T04:05:54.598Z,47.00
2019-03-20T04:07:01.444Z,46.43
2019-03-20T04:08:08.261Z,40.67
2019-03-20T04:09:15.336Z,54.77
2019-03-20T04:10:22.078Z,44.07
2019-03-20T04:11:28.854Z,44.97
2019-03-20T04:12:35.617Z,52.83
2019-03-20T04:13:42.675Z,48.08
2019-03-20T04:14:49.457Z,54.07
2019-03-20T04:15:56.202Z,49.50
2019-03-20T04:17:02.932Z,48.63
2019-03-20T04:18:10.369Z,45.90
2019-03-20T04:19:17.591Z,55.37
2019-03-20T04:20:24.302Z,57.80
2019-03-20T04:21:31.099Z,47.13
2019-03-20T04:22:38.276Z,54.05
2019-03-20T04:23:45.541Z,47.63
2019-03-20T04:24:52.341Z,43.10
2019-03-20T04:25:59.046Z,47.50
2019-03-20T04:27:05.793Z,44.03
2019-03-20T04:28:12.872Z,42.53
2019-03-20T04:29:19.671Z,53.90
2019-03-20T04:30:26.420Z,55.57
2019-03-20T04:31:33.203Z,47.90
2019-03-20T04:32:40.369Z,42.43
2019-03-20T04:33:47.308Z,42.30
2019-03-20T04:34:54.024Z,46.58
2019-03-20T04:36:00.772Z,48.05
2019-03-20T04:37:07.532Z,50.97
2019-03-20T04:38:14.371Z,46.20
2019-03-20T04:39:21.992Z,48.80
2019-03-20T04:40:29.341Z,66.57
2019-03-20T04:41:36.469Z,64.42
2019-03-20T04:42:43.296Z,49.80
2019-03-20T04:43:51.658Z,47.17
2019-03-20T04:44:59.154Z,45.70
2019-03-20T04:46:06.214Z,55.85
2019-03-20T04:47:13.370Z,47.50
2019-03-20T04:48:20.474Z,44.60
2019-03-20T04:49:27.884Z,49.83
2019-03-20T04:50:34.860Z,53.75
2019-03-20T04:51:41.666Z,52.03
2019-03-20T04:52:48.426Z,51.70
2019-03-20T04:53:55.182Z,46.48
2019-03-20T04:55:02.006Z,52.75
2019-03-20T04:56:09.096Z,57.10
2019-03-20T04:57:16.201Z,43.05
2019-03-20T04:58:22.969Z,54.33
2019-03-20T04:59:29.732Z,55.00
2019-03-20T05:00:36.921Z,60.77
2019-03-20T05:01:44.003Z,44.70
2019-03-20T05:02:51.180Z,48.13
2019-03-20T05:03:58.093Z,49.40
2019-03-20T05:05:05.090Z,50.35
2019-03-20T05:06:11.864Z,43.20
2019-03-20T05:07:19.004Z,60.00
2019-03-20T05:08:26.166Z,52.50
2019-03-20T05:09:33.134Z,40.67
2019-03-20T05:10:40.277Z,48.23
2019-03-20T05:11:47.401Z,46.88
2019-03-20T05:12:54.122Z,45.33
2019-03-20T05:14:01.221Z,48.00
2019-03-20T05:15:09.035Z,44.10
2019-03-20T05:16:15.815Z,44.88
2019-03-20T05:17:22.708Z,41.83
2019-03-20T05:18:29.856Z,45.52
2019-03-20T05:19:37.104Z,46.83
2019-03-20T05:20:44.836Z,48.83
2019-03-20T05:21:54.394Z,48.00
2019-03-20T05:23:01.158Z,52.30
2019-03-20T05:24:07.910Z,50.33
2019-03-20T05:25:14.741Z,47.03
2019-03-20T05:26:21.566Z,46.35
2019-03-20T05:27:28.575Z,52.97
2019-03-20T05:28:35.695Z,47.23
2019-03-20T05:29:42.402Z,43.03
2019-03-20T05:30:49.399Z,49.15
2019-03-20T05:31:56.151Z,47.88
2019-03-20T05:33:02.967Z,50.90
2019-03-20T05:34:10.472Z,52.23
2019-03-20T05:35:17.777Z,47.48
2019-03-20T05:36:24.754Z,41.02
2019-03-20T05:37:31.835Z,50.90
2019-03-20T05:38:39.027Z,43.20
2019-03-20T05:39:46.104Z,51.17
2019-03-20T05:40:53.256Z,45.17
2019-03-20T05:42:00.164Z,53.00
2019-03-20T05:43:06.951Z,46.93
2019-03-20T05:44:13.674Z,45.80
2019-03-20T05:45:20.617Z,49.10
2019-03-20T05:46:27.386Z,47.03
2019-03-20T05:47:34.507Z,48.52
2019-03-20T05:48:41.245Z,45.57
2019-03-20T05:49:48.316Z,46.20
2019-03-20T05:50:55.090Z,39.78
2019-03-20T05:52:01.879Z,51.50
2019-03-20T05:53:09.156Z,42.80
2019-03-20T05:54:15.834Z,47.40
2019-03-20T05:55:22.549Z,45.47
2019-03-20T05:56:29.337Z,40.60
2019-03-20T05:57:36.048Z,48.97
2019-03-20T05:58:42.904Z,49.67
2019-03-20T05:59:49.630Z,42.73
2019-03-20T06:00:56.418Z,44.63
2019-03-20T06:02:03.165Z,40.23
2019-03-20T06:03:10.048Z,44.00
2019-03-20T06:04:16.939Z,40.70
2019-03-20T06:05:23.690Z,45.63
2019-03-20T06:06:30.647Z,46.15
2019-03-20T06:07:37.404Z,37.97
2019-03-20T06:08:44.180Z,50.37
2019-03-20T06:09:50.940Z,44.17
2019-03-20T06:10:57.760Z,43.73
2019-03-20T06:12:04.477Z,40.23
2019-03-20T06:13:11.713Z,36.33
2019-03-20T06:14:19.137Z,41.90
2019-03-20T06:15:25.902Z,42.73
2019-03-20T06:16:32.622Z,39.73
2019-03-20T06:17:39.449Z,45.87
2019-03-20T06:18:46.564Z,46.17
2019-03-20T06:19:53.325Z,42.40
2019-03-20T06:21:00.428Z,39.07
2019-03-20T06:22:07.258Z,35.73
2019-03-20T06:23:14.368Z,35.07
2019-03-20T06:24:21.164Z,42.13
2019-03-20T06:25:28.309Z,40.20
2019-03-20T06:26:35.479Z,38.70
2019-03-20T06:27:42.988Z,42.60
2019-03-20T06:28:49.757Z,45.37
2019-03-20T06:29:56.946Z,35.23
2019-03-20T06:31:03.660Z,39.53
2019-03-20T06:32:10.358Z,36.77
2019-03-20T06:33:17.158Z,36.20
2019-03-20T06:34:23.996Z,36.93
2019-03-20T06:35:30.758Z,40.63
2019-03-20T06:36:37.696Z,41.10
2019-03-20T06:37:45.168Z,30.70
2019-03-20T06:38:52.284Z,39.00
2019-03-20T06:39:59.584Z,38.87
2019-03-20T06:41:07.089Z,32.83
2019-03-20T06:42:13.793Z,35.70
2019-03-20T06:43:20.572Z,33.10
2019-03-20T06:44:27.423Z,34.23
2019-03-20T06:45:34.309Z,35.03
2019-03-20T06:46:41.114Z,40.93
2019-03-20T06:47:48.227Z,31.40
2019-03-20T06:48:55.695Z,38.67
2019-03-20T06:50:02.474Z,31.53
2019-03-20T06:51:09.945Z,28.70
2019-03-20T06:52:17.440Z,31.90
2019-03-20T06:53:24.239Z,41.47
2019-03-20T06:54:31.729Z,28.97
2019-03-20T06:55:38.757Z,30.40
2019-03-20T06:56:45.849Z,35.90
2019-03-20T06:57:52.521Z,30.70
2019-03-20T06:59:46.607Z,44.00
2019-03-20T07:01:23.084Z,35.47
2019-03-20T07:02:29.564Z,35.20
2019-03-20T07:04:05.272Z,29.83
2019-03-20T07:06:16.921Z,32.60
2019-03-20T07:07:43.928Z,32.57
2019-03-20T07:08:56.661Z,32.30
2019-03-20T07:11:08.621Z,37.40
2019-03-20T07:12:15.771Z,30.90
2019-03-20T07:13:23.112Z,41.70
2019-03-20T07:14:30.245Z,34.27
2019-03-20T07:15:37.396Z,36.03
2019-03-20T07:16:44.153Z,37.40
2019-03-20T07:17:51.238Z,38.67
2019-03-20T07:18:58.443Z,32.20
2019-03-20T07:20:06.280Z,43.80
2019-03-20T07:21:13.416Z,38.10
2019-03-20T07:22:20.380Z,35.23
2019-03-20T07:23:27.153Z,32.80
2019-03-20T07:24:34.101Z,34.70
2019-03-20T07:25:41.375Z,38.40
2019-03-20T07:26:48.402Z,38.80
2019-03-20T07:27:55.527Z,37.73
2019-03-20T07:29:02.523Z,32.07
2019-03-20T07:30:11.273Z,33.30
2019-03-20T07:31:18.498Z,37.27
2019-03-20T07:32:25.567Z,36.83
2019-03-20T07:33:32.481Z,40.63
2019-03-20T07:34:39.279Z,34.30
2019-03-20T07:35:46.277Z,34.30
2019-03-20T07:36:53.135Z,36.93
2019-03-20T07:38:00.499Z,31.23
2019-03-20T07:39:10.425Z,33.70
2019-03-20T07:40:17.501Z,41.47
2019-03-20T07:41:24.242Z,35.10
2019-03-20T07:42:31.378Z,39.97
2019-03-20T07:43:38.772Z,31.63
2019-03-20T07:44:45.473Z,35.33
2019-03-20T07:45:52.382Z,37.50
2019-03-20T07:46:59.183Z,31.10
2019-03-20T07:48:05.912Z,30.27
2019-03-20T07:49:13.022Z,33.40
2019-03-20T07:50:20.069Z,30.50
2019-03-20T07:51:26.849Z,40.40
2019-03-20T07:52:33.609Z,37.20
2019-03-20T07:53:41.244Z,32.37
2019-03-20T07:54:48.000Z,34.90
2019-03-20T07:55:54.828Z,32.73
2019-03-20T07:57:01.642Z,33.90
2019-03-20T07:58:08.346Z,39.93
2019-03-20T07:59:15.102Z,35.10
2019-03-20T08:00:22.369Z,33.20
2019-03-20T08:01:29.153Z,33.90
2019-03-20T08:02:36.616Z,32.27
2019-03-20T08:03:43.341Z,37.43
2019-03-20T08:04:50.541Z,41.77
2019-03-20T08:05:57.603Z,37.93
2019-03-20T08:07:04.413Z,38.20
2019-03-20T08:08:11.371Z,28.10
2019-03-20T08:09:18.172Z,32.10
2019-03-20T08:10:24.941Z,40.00
2019-03-20T08:11:31.687Z,36.00
2019-03-20T08:12:38.446Z,36.33
2019-03-20T08:13:45.644Z,32.10
2019-03-20T08:14:52.482Z,32.40
2019-03-20T08:15:59.370Z,41.03
2019-03-20T08:17:06.670Z,36.20
2019-03-20T08:18:13.788Z,31.80
2019-03-20T08:19:20.512Z,28.90
2019-03-20T08:20:27.961Z,36.00
2019-03-20T08:21:35.287Z,34.80
2019-03-20T08:22:42.406Z,34.30
2019-03-20T08:23:49.032Z,34.30
2019-03-20T08:24:56.192Z,36.77
2019-03-20T08:26:03.439Z,45.03
2019-03-20T08:27:10.572Z,37.97
2019-03-20T08:28:17.692Z,32.50
2019-03-20T08:29:24.495Z,39.90
2019-03-20T08:30:31.615Z,34.73
2019-03-20T08:31:38.815Z,34.10
2019-03-20T08:32:45.994Z,38.37
2019-03-20T08:33:53.476Z,37.10
2019-03-20T08:35:00.469Z,37.67
2019-03-20T08:36:07.612Z,38.97
2019-03-20T08:37:14.553Z,47.83
2019-03-20T08:38:21.805Z,37.40
2019-03-20T08:39:29.359Z,36.00
2019-03-20T08:40:36.536Z,30.60
2019-03-20T08:41:43.260Z,34.60
2019-03-20T08:42:51.478Z,31.73
2019-03-20T08:43:59.479Z,34.07
2019-03-20T08:45:07.340Z,39.27
2019-03-20T08:46:14.466Z,36.27
2019-03-20T08:47:21.876Z,34.37
2019-03-20T08:48:28.807Z,33.10
2019-03-20T08:49:35.616Z,37.90
2019-03-20T08:50:43.416Z,38.60
2019-03-20T08:51:50.573Z,38.07
2019-03-20T08:52:57.732Z,37.20
2019-03-20T08:54:06.164Z,31.00
2019-03-20T08:55:13.982Z,32.77
2019-03-20T08:56:20.811Z,32.70
2019-03-20T08:57:27.714Z,34.10
2019-03-20T08:58:34.620Z,35.03
2019-03-20T08:59:41.372Z,41.07
2019-03-20T09:00:48.495Z,40.17
2019-03-20T09:01:55.636Z,38.10
2019-03-20T09:03:02.709Z,36.13
2019-03-20T09:04:09.472Z,37.80
2019-03-20T09:05:16.416Z,37.33
2019-03-20T09:06:23.166Z,36.20
2019-03-20T09:07:30.457Z,40.00
2019-03-20T09:08:37.191Z,36.20
2019-03-20T09:09:44.293Z,34.77
2019-03-20T09:10:51.070Z,35.90
2019-03-20T09:11:58.246Z,36.03
2019-03-20T09:13:05.150Z,33.93
2019-03-20T09:14:11.918Z,38.90
2019-03-20T09:15:18.750Z,34.03
2019-03-20T09:16:25.521Z,35.80
2019-03-20T09:17:32.666Z,36.63
2019-03-20T09:18:39.859Z,32.40
2019-03-20T09:19:46.932Z,32.83
2019-03-20T09:20:53.702Z,33.57
2019-03-20T09:22:00.525Z,35.67
2019-03-20T09:23:07.581Z,33.97
2019-03-20T09:24:14.511Z,36.60
2019-03-20T09:25:21.528Z,39.03
2019-03-20T09:26:28.296Z,44.13
2019-03-20T09:27:35.052Z,38.30
2019-03-20T09:28:42.133Z,33.00
2019-03-20T09:29:48.792Z,31.70
2019-03-20T09:30:55.699Z,38.53
2019-03-20T09:32:02.486Z,33.13
2019-03-20T09:33:09.290Z,30.97
2019-03-20T09:34:16.082Z,32.87
2019-03-20T09:35:23.022Z,40.70
2019-03-20T09:36:29.784Z,35.57
2019-03-20T09:37:36.828Z,30.67
2019-03-20T09:38:43.965Z,34.67
2019-03-20T09:39:51.158Z,31.47
2019-03-20T09:40:58.101Z,34.53
2019-03-20T09:42:05.175Z,35.40
2019-03-20T09:43:12.206Z,32.17
2019-03-20T09:44:18.975Z,33.33
2019-03-20T09:45:26.039Z,30.80
2019-03-20T09:46:32.982Z,32.93
2019-03-20T09:47:39.700Z,39.50
2019-03-20T09:48:46.474Z,35.03
2019-03-20T09:49:53.658Z,33.60
2019-03-20T09:51:00.613Z,32.50
2019-03-20T09:52:07.366Z,32.23
2019-03-20T09:53:14.772Z,30.27
2019-03-20T09:54:21.808Z,35.53
2019-03-20T09:55:47.862Z,30.90
2019-03-20T09:56:54.660Z,34.73
2019-03-20T09:58:11.104Z,35.20
2019-03-20T09:59:10.194Z,36.87
2019-03-20T10:00:20.356Z,35.63
2019-03-20T10:01:27.227Z,34.80
2019-03-20T10:02:34.541Z,33.50
2019-03-20T10:03:41.299Z,34.33
2019-03-20T10:04:48.417Z,38.33
2019-03-20T10:05:55.593Z,30.07
2019-03-20T10:07:02.426Z,34.10
2019-03-20T10:08:09.626Z,32.30
2019-03-20T10:09:16.617Z,35.27
2019-03-20T10:10:23.873Z,35.67
2019-03-20T10:11:31.091Z,35.33
2019-03-20T10:12:38.567Z,33.80
2019-03-20T10:13:45.378Z,34.00
2019-03-20T10:14:52.503Z,26.70
2019-03-20T10:15:59.717Z,37.00
2019-03-20T10:17:07.207Z,33.60
2019-03-20T10:18:14.657Z,30.60
2019-03-20T10:19:21.443Z,38.63
2019-03-20T10:20:28.378Z,42.27
2019-03-20T10:21:35.115Z,29.87
2019-03-20T10:22:41.886Z,35.17
2019-03-20T10:23:48.684Z,28.07
2019-03-20T10:24:55.783Z,34.67
2019-03-20T10:26:02.881Z,31.47
2019-03-20T10:27:09.563Z,36.40
2019-03-20T10:28:16.631Z,28.43
2019-03-20T10:29:24.480Z,29.83
2019-03-20T10:30:31.487Z,34.90
2019-03-20T10:31:38.573Z,36.03
2019-03-20T10:32:45.654Z,35.03
2019-03-20T10:33:52.878Z,30.27
2019-03-20T10:35:00.374Z,29.63
2019-03-20T10:36:07.542Z,39.13
2019-03-20T10:37:14.651Z,32.83
2019-03-20T10:38:21.433Z,36.00
2019-03-20T10:39:28.883Z,34.80
2019-03-20T10:40:35.713Z,34.30
2019-03-20T10:41:42.459Z,35.87
2019-03-20T10:42:49.298Z,45.90
2019-03-20T10:43:56.143Z,34.50
2019-03-20T10:45:03.247Z,30.13
2019-03-20T10:46:09.976Z,32.70
2019-03-20T10:47:17.049Z,30.27
2019-03-20T10:48:24.047Z,38.70
2019-03-20T10:49:31.148Z,32.93
2019-03-20T10:50:37.957Z,34.37
2019-03-20T10:51:47.160Z,30.40
2019-03-20T10:52:54.005Z,31.73
2019-03-20T10:54:01.866Z,35.57
2019-03-20T10:55:09.682Z,30.83
2019-03-20T10:56:18.753Z,34.90
2019-03-20T10:57:25.644Z,36.83
2019-03-20T10:58:32.587Z,32.73
2019-03-20T10:59:39.579Z,29.87
2019-03-20T11:00:46.739Z,30.93
2019-03-20T11:01:53.822Z,32.60
2019-03-20T11:03:00.860Z,41.10
2019-03-20T11:04:07.711Z,30.90
2019-03-20T11:05:15.167Z,32.70
2019-03-20T11:06:22.245Z,33.47
2019-03-20T11:07:29.465Z,34.73
2019-03-20T11:08:37.024Z,32.57
2019-03-20T11:09:44.149Z,29.23
2019-03-20T11:10:50.989Z,32.93
2019-03-20T11:11:57.755Z,31.10
2019-03-20T11:13:05.017Z,33.70
2019-03-20T11:14:12.479Z,27.80
2019-03-20T11:15:19.674Z,41.40
2019-03-20T11:16:27.173Z,36.07
2019-03-20T11:17:33.999Z,34.60
2019-03-20T11:18:41.110Z,37.33
2019-03-20T11:19:48.516Z,39.03
2019-03-20T11:20:56.137Z,38.80
2019-03-20T11:22:03.490Z,35.13
2019-03-20T11:23:11.023Z,44.13
2019-03-20T11:24:18.312Z,32.97
2019-03-20T11:25:26.292Z,37.50
2019-03-20T11:26:33.623Z,35.80
2019-03-20T11:27:40.773Z,32.93
2019-03-20T11:28:49.423Z,31.97
2019-03-20T11:29:57.366Z,37.80
2019-03-20T11:31:04.377Z,40.57
2019-03-20T11:32:14.179Z,38.80
2019-03-20T11:33:19.766Z,40.70
2019-03-20T11:34:28.205Z,40.10
2019-03-20T11:35:35.366Z,44.40
2019-03-20T11:36:42.681Z,38.53
2019-03-20T11:37:49.906Z,42.07
2019-03-20T11:38:56.988Z,39.63
2019-03-20T11:40:03.669Z,38.43
2019-03-20T11:41:10.374Z,37.97
2019-03-20T11:42:17.430Z,41.17
2019-03-20T11:43:24.139Z,40.60
2019-03-20T11:44:30.899Z,34.63
2019-03-20T11:45:37.574Z,40.93
2019-03-20T11:46:44.598Z,43.37
2019-03-20T11:47:51.974Z,45.43
2019-03-20T11:48:58.698Z,42.67
2019-03-20T11:50:08.447Z,36.93
2019-03-20T11:51:15.474Z,38.93
2019-03-20T11:52:22.143Z,41.83
2019-03-20T11:53:29.414Z,39.57
2019-03-20T11:54:36.083Z,38.60
2019-03-20T11:55:44.459Z,38.07
2019-03-20T11:56:51.144Z,41.33
2019-03-20T11:57:57.897Z,40.57
2019-03-20T11:59:04.707Z,42.80
2019-03-20T12:00:14.897Z,39.70
2019-03-20T12:01:22.526Z,44.60
2019-03-20T12:02:29.345Z,39.43
2019-03-20T12:03:35.994Z,40.40
2019-03-20T12:04:42.668Z,39.70
2019-03-20T12:05:49.391Z,36.33
2019-03-20T12:06:56.251Z,42.17
2019-03-20T12:08:03.105Z,44.93
2019-03-20T12:09:11.387Z,41.93
2019-03-20T12:10:20.861Z,46.07
2019-03-20T12:11:27.592Z,47.80
2019-03-20T12:12:34.261Z,40.70
2019-03-20T12:13:41.645Z,40.57
2019-03-20T12:14:48.351Z,40.07
2019-03-20T12:15:55.408Z,44.97
2019-03-20T12:17:02.125Z,35.13
2019-03-20T12:18:08.783Z,40.80
2019-03-20T12:19:15.971Z,38.30
2019-03-20T12:20:23.143Z,39.10
2019-03-20T12:21:30.185Z,39.03
2019-03-20T12:22:37.242Z,36.90
2019-03-20T12:23:44.111Z,37.60
2019-03-20T12:24:51.284Z,43.97
2019-03-20T12:25:58.544Z,44.13
2019-03-20T12:27:14.671Z,47.77
2019-03-20T12:28:13.740Z,49.27
2019-03-20T12:29:22.324Z,46.73
2019-03-20T12:30:30.751Z,38.83
2019-03-20T12:31:37.665Z,46.20
2019-03-20T12:32:45.471Z,43.10
2019-03-20T12:33:55.109Z,52.17
2019-03-20T12:35:02.381Z,48.13
2019-03-20T12:36:09.891Z,37.07
2019-03-20T12:37:17.072Z,45.00
2019-03-20T12:38:24.013Z,50.77
2019-03-20T12:39:31.102Z,47.00
2019-03-20T12:40:37.923Z,42.00
2019-03-20T12:41:44.996Z,45.27
2019-03-20T12:42:52.126Z,41.30
2019-03-20T12:43:59.293Z,43.07
2019-03-20T12:45:10.003Z,40.93
2019-03-20T12:46:17.193Z,48.90
2019-03-20T12:47:24.323Z,47.73
2019-03-20T12:48:31.445Z,43.83
2019-03-20T12:49:38.338Z,45.10
2019-03-20T12:50:45.515Z,47.57
2019-03-20T12:51:52.310Z,45.13
2019-03-20T12:53:01.595Z,38.30
2019-03-20T12:54:07.779Z,45.43
2019-03-20T12:55:15.219Z,47.50
2019-03-20T12:56:22.321Z,49.50
2019-03-20T12:57:29.358Z,47.70
2019-03-20T12:58:36.484Z,43.53
2019-03-20T12:59:43.576Z,44.17
2019-03-20T13:01:56.151Z,50.77
2019-03-20T13:03:02.989Z,47.60
2019-03-20T13:04:10.017Z,51.37
2019-03-20T13:05:17.142Z,49.73
2019-03-20T13:06:23.899Z,43.10
2019-03-20T13:07:30.905Z,59.33
2019-03-20T13:08:38.542Z,53.67
2019-03-20T13:09:45.242Z,47.43
2019-03-20T13:10:51.924Z,54.10
2019-03-20T13:11:58.667Z,52.70
2019-03-20T13:13:05.721Z,53.20
2019-03-20T13:14:12.532Z,56.77
2019-03-20T13:15:23.964Z,51.10
2019-03-20T13:16:30.779Z,46.83
2019-03-20T13:17:38.198Z,47.23
2019-03-20T13:18:45.019Z,57.13
2019-03-20T13:19:51.712Z,45.30
2019-03-20T13:20:58.463Z,57.53
2019-03-20T13:22:05.699Z,49.13
2019-03-20T13:23:15.279Z,56.27
2019-03-20T13:24:22.003Z,46.27
2019-03-20T13:25:29.551Z,47.00
2019-03-20T13:26:36.701Z,46.70
2019-03-20T13:27:43.402Z,49.20
2019-03-20T13:28:50.403Z,51.77
2019-03-20T13:29:57.299Z,46.03
2019-03-20T13:31:10.223Z,54.07
2019-03-20T13:32:17.282Z,50.73
2019-03-20T13:33:26.033Z,60.73
2019-03-20T13:34:32.481Z,56.63
2019-03-20T13:35:39.287Z,48.93
2019-03-20T13:36:46.489Z,51.50
2019-03-20T13:37:53.159Z,56.87
2019-03-20T13:38:59.933Z,55.53
2019-03-20T13:40:14.268Z,51.53
2019-03-20T13:41:15.670Z,54.93
2019-03-20T13:42:22.391Z,54.70
2019-03-20T13:43:29.092Z,49.47
2019-03-20T13:44:36.047Z,58.67
2019-03-20T13:45:43.179Z,53.97
2019-03-20T13:46:50.211Z,52.40
2019-03-20T13:47:57.263Z,61.70
2019-03-20T13:49:04.127Z,56.00
2019-03-20T13:50:12.852Z,51.23
2019-03-20T13:51:19.568Z,57.33
2019-03-20T13:52:26.292Z,45.00
2019-03-20T13:53:32.977Z,61.13
2019-03-20T13:54:40.067Z,66.80
2019-03-20T13:55:46.758Z,50.13
2019-03-20T13:56:53.768Z,58.57
2019-03-20T13:58:00.897Z,60.10
2019-03-20T13:59:07.864Z,52.57
2019-03-20T14:00:20.269Z,63.77
2019-03-20T14:01:27.347Z,51.73
2019-03-20T14:02:34.532Z,56.93
2019-03-20T14:03:41.241Z,54.23
2019-03-20T14:04:48.403Z,58.80
2019-03-20T14:05:55.536Z,50.83
2019-03-20T14:07:02.470Z,48.57
2019-03-20T14:08:09.527Z,51.63
2019-03-20T14:09:16.560Z,52.60
2019-03-20T14:10:25.315Z,50.90
2019-03-20T14:11:32.227Z,56.00
2019-03-20T14:12:38.984Z,64.40
2019-03-20T14:13:45.733Z,55.00
2019-03-20T14:14:53.023Z,59.40
2019-03-20T14:15:59.790Z,67.63
2019-03-20T14:17:06.705Z,65.27
2019-03-20T14:18:13.489Z,54.73
2019-03-20T14:19:20.231Z,52.53
2019-03-20T14:20:27.090Z,49.93
2019-03-20T14:21:34.531Z,55.50
2019-03-20T14:22:41.334Z,58.93
2019-03-20T14:23:48.072Z,58.57
2019-03-20T14:24:55.168Z,53.73
2019-03-20T14:26:01.924Z,62.50
2019-03-20T14:27:08.951Z,67.57
2019-03-20T14:28:15.589Z,57.13
2019-03-20T14:29:23.108Z,69.60
2019-03-20T14:30:30.125Z,52.87